Time;durP1;ratioP1;P1;durP2;ratioP2;P2;SDS_P1;SDS_P2;PMS_P1;PMS_P2;Temp;Humidity;BMP_temperature;BMP_pressure;BME280_temperature;BME280_humidity;BME280_pressure;Samples;Min_cycle;Max_cycle;Signal;HPM_P1;HPM_P2
2021/07/14 00:00:14;;;;;;;;;31.00;28.75;;;;;19.27;65.49;100878.91;5100921;27;45228;-46
2021/07/14 00:02:40;;;;;;;;;32.25;27.50;;;;;19.25;65.95;100882.59;5101096;27;45411;-50
2021/07/14 00:05:11;;;;;;;;;30.75;26.25;;;;;19.21;65.90;100879.19;5100549;27;45366;-46
2021/07/14 00:07:37;;;;;;;;;28.75;25.00;;;;;19.17;65.77;100873.16;5100872;27;45226;-49
2021/07/14 00:10:13;;;;;;;;;30.50;26.25;;;;;19.17;65.41;100880.28;5100982;27;45410;-47
2021/07/14 00:12:56;;;;;;;;;40.00;35.50;;;;;19.14;65.65;100883.97;5100776;27;45337;-49
2021/07/14 00:23:24;;;;;;;;;29.50;27.50;;;;;19.06;65.38;100872.81;5100984;27;45413;-51
2021/07/14 00:25:49;;;;;;;;;29.75;27.25;;;;;19.04;65.48;100885.31;5100534;27;45601;-48
2021/07/14 00:28:15;;;;;;;;;27.75;25.50;;;;;19.03;65.58;100883.63;5100589;27;45204;-49
2021/07/14 00:30:48;;;;;;;;;32.25;28.50;;;;;19.03;65.65;100891.59;5100455;27;45263;-51
2021/07/14 00:33:14;;;;;;;;;25.50;24.50;;;;;19.03;65.59;100890.72;5100672;27;45300;-50
2021/07/14 00:35:39;;;;;;;;;25.75;24.50;;;;;19.02;65.22;100889.88;5100208;27;45575;-49
2021/07/14 00:38:05;;;;;;;;;26.75;25.50;;;;;18.99;65.79;100885.56;5100548;27;45301;-47
2021/07/14 00:40:30;;;;;;;;;25.25;23.75;;;;;19.01;65.99;100885.47;5100583;27;45264;-48
2021/07/14 00:42:55;;;;;;;;;27.00;24.75;;;;;19.00;65.58;100884.63;5082106;27;45535;-52
2021/07/14 00:45:21;;;;;;;;;24.25;23.50;;;;;18.98;66.00;100888.28;5100662;27;45526;-48
2021/07/14 00:47:49;;;;;;;;;26.50;24.75;;;;;18.97;65.66;100889.22;5100412;27;46204;-49
2021/07/14 00:50:16;;;;;;;;;27.50;25.50;;;;;18.94;65.72;100887.56;5101229;27;45330;-49
2021/07/14 00:52:41;;;;;;;;;33.75;27.00;;;;;18.92;65.54;100888.59;5104186;27;45382;-48
2021/07/14 00:55:08;;;;;;;;;27.75;24.75;;;;;18.89;65.95;100886.03;5085625;27;45465;-47
2021/07/14 00:57:33;;;;;;;;;28.50;24.00;;;;;18.89;65.65;100883.34;5103650;27;45434;-48
2021/07/14 00:59:59;;;;;;;;;24.00;22.00;;;;;18.88;65.44;100882.50;5085345;27;45247;-48
2021/07/14 01:02:25;;;;;;;;;22.00;20.25;;;;;18.89;65.25;100896.66;5085661;27;45251;-49
2021/07/14 01:05:04;;;;;;;;;26.00;24.25;;;;;18.87;65.49;100896.75;5103709;27;45481;-46
2021/07/14 01:07:50;;;;;;;;;25.50;21.75;;;;;18.84;65.50;100897.75;5103549;27;45658;-49
2021/07/14 01:10:30;;;;;;;;;27.00;26.50;;;;;18.83;65.90;100900.50;5085288;27;45378;-49
2021/07/14 01:13:22;;;;;;;;;29.50;24.75;;;;;18.80;65.71;100890.84;5103682;27;45316;-48
2021/07/14 01:16:02;;;;;;;;;27.75;24.75;;;;;18.78;65.71;100898.03;5103566;27;45451;-48
2021/07/14 01:18:36;;;;;;;;;31.75;28.25;;;;;18.78;65.96;100894.50;5103427;27;46314;-50
2021/07/14 01:21:07;;;;;;;;;30.50;30.25;;;;;18.76;65.59;100899.88;5103406;27;45508;-50
2021/07/14 01:24:02;;;;;;;;;27.25;26.00;;;;;18.73;65.90;100894.72;5103626;27;45321;-49
2021/07/14 01:26:43;;;;;;;;;30.75;27.75;;;;;18.73;66.01;100900.03;5103402;27;45325;-51
2021/07/14 01:29:11;;;;;;;;;26.75;24.00;;;;;18.72;65.66;100900.13;5084992;27;46302;-46
2021/07/14 01:31:38;;;;;;;;;35.50;29.75;;;;;18.71;65.84;100901.91;5103166;27;45437;-50
2021/07/14 01:34:07;;;;;;;;;27.75;26.75;;;;;18.67;66.18;100897.66;5103295;27;45165;-50
2021/07/14 01:36:36;;;;;;;;;27.75;25.75;;;;;18.67;65.90;100895.84;5082869;27;45179;-50
2021/07/14 01:39:03;;;;;;;;;26.75;25.00;;;;;18.66;65.79;100890.59;5103222;27;46097;-46
2021/07/14 01:41:34;;;;;;;;;21.25;21.25;;;;;18.65;65.90;100891.53;5103049;27;45236;-50
2021/07/14 01:44:01;;;;;;;;;21.00;20.75;;;;;18.63;65.83;100888.09;5103246;27;45349;-47
2021/07/14 01:46:30;;;;;;;;;17.50;16.25;;;;;18.59;65.82;100883.81;5103206;27;45308;-50
2021/07/14 01:49:00;;;;;;;;;25.25;22.50;;;;;18.59;65.85;100884.72;5101691;27;48380;-47
2021/07/14 01:51:27;;;;;;;;;20.25;19.25;;;;;18.60;65.96;100885.56;5102962;27;45407;-48
2021/07/14 01:53:53;;;;;;;;;18.25;15.25;;;;;18.58;65.72;100885.63;5103274;27;45509;-48
2021/07/14 01:56:21;;;;;;;;;19.25;18.50;;;;;18.57;65.92;100880.41;5102910;27;45433;-49
2021/07/14 01:58:48;;;;;;;;;16.75;14.75;;;;;18.56;65.60;100878.66;5102951;27;45317;-48
2021/07/14 02:01:18;;;;;;;;;15.75;14.50;;;;;18.54;65.63;100880.50;5102067;27;45402;-49
2021/07/14 02:04:32;;;;;;;;;17.50;12.50;;;;;18.52;65.60;100869.94;5102451;27;45280;-48
2021/07/14 02:06:33;;;;;;;;;13.75;13.75;;;;;18.51;65.41;100869.09;5091607;27;46219;-49
2021/07/14 02:08:59;;;;;;;;;17.75;14.75;;;;;18.51;65.35;100873.53;5102784;27;46142;-51
2021/07/14 02:11:27;;;;;;;;;12.75;11.75;;;;;18.48;65.68;100871.03;5102718;27;45291;-47
2021/07/14 02:13:53;;;;;;;;;14.75;12.50;;;;;18.49;65.46;100864.78;5102983;27;45324;-52
2021/07/14 02:16:20;;;;;;;;;13.75;13.75;;;;;18.48;65.49;100866.56;5102848;27;45248;-49
2021/07/14 02:18:50;;;;;;;;;13.00;12.00;;;;;18.47;65.39;100866.63;5102513;27;45325;-51
2021/07/14 02:21:15;;;;;;;;;13.00;12.25;;;;;18.44;65.74;100867.66;5102347;27;45573;-49
2021/07/14 02:23:40;;;;;;;;;12.50;9.00;;;;;18.44;65.55;100866.75;5102714;27;45236;-51
2021/07/14 02:26:06;;;;;;;;;15.50;14.75;;;;;18.41;65.49;100865.09;5102624;27;45438;-47
2021/07/14 02:28:32;;;;;;;;;8.75;8.75;;;;;18.41;65.54;100874.88;5102376;27;46077;-47
2021/07/14 02:30:57;;;;;;;;;11.00;9.75;;;;;18.42;65.21;100874.81;5080714;28;45333;-49
2021/07/14 02:33:23;;;;;;;;;10.25;10.25;;;;;18.40;65.29;100881.13;5094372;27;45319;-48
2021/07/14 02:35:50;;;;;;;;;12.00;9.75;;;;;18.42;65.53;100882.78;5102845;27;45237;-48
2021/07/14 02:38:25;;;;;;;;;11.25;10.00;;;;;18.45;65.27;100888.00;5102435;27;45268;-48
2021/07/14 02:40:57;;;;;;;;;10.50;10.50;;;;;18.45;65.34;100890.66;5083944;27;45260;-50
2021/07/14 02:43:28;;;;;;;;;11.00;9.25;;;;;18.43;65.36;100886.34;5102295;27;45336;-50
2021/07/14 02:45:58;;;;;;;;;10.75;10.75;;;;;18.47;65.00;100898.56;5102141;27;45417;-48
2021/07/14 02:48:28;;;;;;;;;13.25;11.00;;;;;18.46;65.16;100896.84;5101950;27;45365;-50
2021/07/14 02:50:57;;;;;;;;;11.75;10.50;;;;;18.46;65.01;100900.34;5102231;27;45401;-50
2021/07/14 02:53:28;;;;;;;;;10.50;8.50;;;;;18.45;64.96;100911.06;5102303;27;45430;-48
2021/07/14 02:56:01;;;;;;;;;11.00;10.00;;;;;18.44;65.27;100904.00;5102221;27;45379;-51
2021/07/14 02:58:31;;;;;;;;;10.00;8.50;;;;;18.44;65.12;100904.88;5101771;27;47218;-50
2021/07/14 03:00:59;;;;;;;;;11.50;9.50;;;;;18.43;64.83;100902.31;5102089;27;45342;-51
2021/07/14 03:03:25;;;;;;;;;9.25;7.50;;;;;18.41;64.90;100896.19;5101971;27;45240;-52
2021/07/14 03:05:59;;;;;;;;;7.75;7.75;;;;;18.42;65.06;100901.41;5101743;27;45558;-49
2021/07/14 03:08:30;;;;;;;;;11.00;9.25;;;;;18.41;64.83;100899.69;5101914;27;45276;-51
2021/07/14 03:10:56;;;;;;;;;7.75;7.25;;;;;18.41;65.16;100894.38;5101789;27;45173;-50
2021/07/14 03:13:25;;;;;;;;;12.50;9.00;;;;;18.42;64.93;100900.56;5101689;27;45429;-52
2021/07/14 03:15:51;;;;;;;;;7.75;7.00;;;;;18.42;65.09;100890.78;5079998;28;45222;-47
2021/07/14 03:18:19;;;;;;;;;8.00;7.75;;;;;18.41;65.08;100891.72;5092264;27;46380;-48
2021/07/14 03:20:47;;;;;;;;;12.50;10.00;;;;;18.40;64.83;100895.31;5101538;27;45469;-49
2021/07/14 03:23:14;;;;;;;;;6.25;6.25;;;;;18.41;64.76;100897.03;5101870;27;45374;-50
2021/07/14 03:25:42;;;;;;;;;8.25;7.25;;;;;18.39;65.03;100898.91;5101559;27;45451;-50
2021/07/14 03:28:07;;;;;;;;;12.50;8.25;;;;;18.39;64.85;100900.69;5101472;27;45426;-52
2021/07/14 03:30:33;;;;;;;;;8.00;8.00;;;;;18.39;65.04;100908.66;5101455;27;45288;-47
2021/07/14 03:32:58;;;;;;;;;11.25;10.00;;;;;18.37;65.08;100915.88;5101664;27;45280;-50
2021/07/14 03:35:24;;;;;;;;;8.75;7.75;;;;;18.34;64.90;100914.22;5101412;27;45338;-48
2021/07/14 03:37:52;;;;;;;;;9.50;8.25;;;;;18.31;64.81;100912.56;5101209;27;45725;-48
2021/07/14 03:40:18;;;;;;;;;10.25;8.50;;;;;18.32;64.91;100918.72;5101326;27;45381;-50
2021/07/14 03:42:47;;;;;;;;;7.25;6.75;;;;;18.31;64.97;100909.00;5101331;27;45406;-47
2021/07/14 03:45:13;;;;;;;;;8.75;8.00;;;;;18.30;64.97;100916.13;5101285;27;45178;-49
2021/07/14 03:47:41;;;;;;;;;9.75;8.25;;;;;18.30;64.95;100923.25;5101281;27;45898;-49
2021/07/14 03:50:07;;;;;;;;;7.25;6.00;;;;;18.27;64.71;100916.25;5101054;27;45311;-47
2021/07/14 03:52:34;;;;;;;;;6.75;6.25;;;;;18.27;64.91;100920.72;5101554;27;45308;-48
2021/07/14 03:55:00;;;;;;;;;8.25;7.25;;;;;18.27;64.91;100926.91;5101088;27;45295;-49
2021/07/14 03:57:29;;;;;;;;;7.75;7.00;;;;;18.27;64.67;100931.38;5101083;27;45233;-50
2021/07/14 03:59:56;;;;;;;;;11.50;7.00;;;;;18.26;64.59;100935.81;5101140;27;45345;-47
2021/07/14 04:02:22;;;;;;;;;7.75;6.50;;;;;18.25;64.58;100927.91;5101271;27;45331;-47
2021/07/14 04:04:49;;;;;;;;;6.25;4.75;;;;;18.24;64.67;100939.47;5100957;27;45270;-46
2021/07/14 04:07:19;;;;;;;;;6.25;6.25;;;;;18.23;64.73;100927.13;5100942;27;45307;-50
2021/07/14 04:09:45;;;;;;;;;7.25;6.25;;;;;18.19;64.74;100929.91;5101179;27;45518;-47
2021/07/14 04:12:12;;;;;;;;;7.00;7.00;;;;;18.18;64.87;100935.28;5101011;27;45302;-50
2021/07/14 04:14:38;;;;;;;;;8.00;5.75;;;;;18.17;64.82;100937.06;5101072;27;45299;-49
2021/07/14 04:17:04;;;;;;;;;7.00;5.50;;;;;18.16;64.46;100943.34;5100733;27;46093;-49
2021/07/14 04:19:30;;;;;;;;;6.00;6.00;;;;;18.15;64.65;100946.91;5100683;27;45208;-51
2021/07/14 04:21:56;;;;;;;;;8.25;8.00;;;;;18.15;64.45;100943.38;5100850;27;45493;-52
2021/07/14 04:24:22;;;;;;;;;9.50;7.50;;;;;18.13;64.67;100938.13;5100516;27;45229;-51
2021/07/14 04:26:49;;;;;;;;;10.25;7.00;;;;;18.13;64.90;100938.13;5078977;27;47015;-51
2021/07/14 04:29:15;;;;;;;;;7.00;6.75;;;;;18.13;64.63;100938.13;5100875;27;45362;-51
2021/07/14 04:31:41;;;;;;;;;7.00;7.00;;;;;18.13;64.74;100942.59;5082436;27;45267;-52
2021/07/14 04:34:07;;;;;;;;;7.25;7.25;;;;;18.13;64.80;100942.59;5100678;27;45314;-46
2021/07/14 04:36:36;;;;;;;;;7.00;7.00;;;;;18.11;64.74;100937.34;5100351;27;47102;-51
2021/07/14 04:39:04;;;;;;;;;7.00;7.00;;;;;18.12;64.91;100939.06;5100954;27;45260;-50
2021/07/14 04:41:29;;;;;;;;;6.50;6.50;;;;;18.12;64.80;100936.41;5100677;27;45322;-49
2021/07/14 04:44:01;;;;;;;;;7.25;7.25;;;;;18.13;64.49;100943.44;5100432;27;45264;-50
2021/07/14 04:46:27;;;;;;;;;8.00;8.00;;;;;18.14;64.74;100936.34;5100242;27;45412;-49
2021/07/14 04:48:52;;;;;;;;;10.00;9.75;;;;;18.13;64.68;100938.13;5100228;27;45335;-52
2021/07/14 04:51:17;;;;;;;;;7.75;7.75;;;;;18.14;64.83;100939.88;5100676;27;45399;-51
2021/07/14 04:53:43;;;;;;;;;9.50;8.00;;;;;18.14;64.63;100941.69;5100597;27;45192;-50
2021/07/14 04:56:08;;;;;;;;;9.00;6.25;;;;;18.08;64.44;100933.97;5081078;27;45367;-51
2021/07/14 04:58:33;;;;;;;;;10.00;7.25;;;;;18.14;64.64;100947.84;5100450;27;45296;-48
2021/07/14 05:00:59;;;;;;;;;8.00;7.00;;;;;18.15;64.64;100952.25;5100475;27;45309;-52
2021/07/14 05:03:24;;;;;;;;;9.50;8.00;;;;;18.14;64.66;100950.50;5100291;27;45438;-52
2021/07/14 05:05:50;;;;;;;;;10.50;7.75;;;;;18.17;64.77;100961.00;5099981;27;46217;-52
2021/07/14 05:08:16;;;;;;;;;10.25;7.50;;;;;18.18;64.78;100962.72;5078720;28;45357;-48
2021/07/14 05:10:41;;;;;;;;;8.00;7.00;;;;;18.19;64.62;100964.47;5095448;27;45212;-50
2021/07/14 05:13:07;;;;;;;;;8.25;8.00;;;;;18.18;64.52;100962.72;5100191;27;45453;-52
2021/07/14 05:15:32;;;;;;;;;8.25;7.25;;;;;18.20;64.86;100968.00;5099976;27;46220;-51
2021/07/14 05:17:58;;;;;;;;;9.75;8.00;;;;;18.19;64.71;100966.28;5100119;27;45310;-52
2021/07/14 05:20:23;;;;;;;;;8.00;7.75;;;;;18.21;64.69;100967.06;5100004;27;45310;-49
2021/07/14 05:22:48;;;;;;;;;7.00;7.00;;;;;18.22;64.63;100973.25;5078546;28;45569;-48
2021/07/14 05:25:15;;;;;;;;;7.75;7.00;;;;;18.18;64.83;100968.06;5094695;27;45158;-48
2021/07/14 05:27:41;;;;;;;;;9.50;7.00;;;;;18.24;64.79;100979.34;5078218;28;45423;-50
2021/07/14 05:30:08;;;;;;;;;10.50;8.50;;;;;18.24;64.46;100979.34;5095043;27;45233;-50
2021/07/14 05:32:34;;;;;;;;;10.75;8.00;;;;;18.24;64.86;100979.34;5099999;27;45461;-50
2021/07/14 05:35:00;;;;;;;;;8.75;8.75;;;;;18.25;64.35;100981.97;5079451;27;47085;-52
2021/07/14 05:37:25;;;;;;;;;8.00;7.00;;;;;18.26;64.50;100982.81;5102594;27;45340;-51
2021/07/14 05:39:50;;;;;;;;;7.75;7.75;;;;;18.26;64.81;100980.16;5103430;27;45280;-48
2021/07/14 05:42:16;;;;;;;;;9.00;8.50;;;;;18.27;64.96;100981.91;5103333;27;45502;-49
2021/07/14 05:44:41;;;;;;;;;8.25;6.75;;;;;18.27;64.80;100982.75;5066453;27;45345;-51
2021/07/14 05:47:06;;;;;;;;;11.25;7.50;;;;;18.29;64.80;100982.72;5103358;27;45342;-49
2021/07/14 05:49:32;;;;;;;;;9.75;9.50;;;;;18.29;64.63;100985.38;5103274;27;45367;-50
2021/07/14 05:51:57;;;;;;;;;10.00;10.00;;;;;18.28;64.81;100976.50;5103349;27;45346;-47
2021/07/14 05:54:23;;;;;;;;;11.50;8.25;;;;;18.30;64.77;100979.09;5102972;27;46412;-47
2021/07/14 05:56:48;;;;;;;;;9.50;8.00;;;;;18.29;64.76;100980.91;5103362;27;45490;-49
2021/07/14 05:59:13;;;;;;;;;9.75;6.50;;;;;18.31;64.85;100986.16;5103161;27;45247;-48
2021/07/14 06:01:39;;;;;;;;;9.50;7.25;;;;;18.29;64.59;100977.41;5103162;27;45232;-49
2021/07/14 06:04:05;;;;;;;;;11.00;9.00;;;;;18.31;64.69;100976.41;5102764;27;45182;-49
2021/07/14 06:06:30;;;;;;;;;7.25;6.75;;;;;18.31;64.58;100981.72;5102965;27;45298;-52
2021/07/14 06:08:55;;;;;;;;;10.00;8.00;;;;;18.32;64.76;100985.22;5103341;27;45371;-50
2021/07/14 06:11:21;;;;;;;;;7.00;7.00;;;;;18.33;65.03;100981.66;5103086;27;45390;-52
2021/07/14 06:13:47;;;;;;;;;12.25;8.50;;;;;18.32;64.59;100982.56;5102617;27;46302;-47
2021/07/14 06:16:12;;;;;;;;;9.25;9.25;;;;;18.32;64.92;100986.09;5103021;27;45284;-49
2021/07/14 06:18:37;;;;;;;;;7.25;7.00;;;;;18.32;64.82;100986.09;5102642;27;45343;-51
2021/07/14 06:21:04;;;;;;;;;9.50;8.50;;;;;18.31;64.95;100989.69;5102615;27;45394;-50
2021/07/14 06:23:29;;;;;;;;;10.75;8.50;;;;;18.31;65.15;100983.50;5102656;27;47150;-46
2021/07/14 06:25:55;;;;;;;;;10.50;10.25;;;;;18.31;64.95;100975.50;5102581;27;45415;-52
2021/07/14 06:28:21;;;;;;;;;8.75;8.00;;;;;18.29;64.67;100986.22;5102736;27;45314;-49
2021/07/14 06:30:47;;;;;;;;;8.00;8.00;;;;;18.30;65.05;100987.09;5102723;27;45317;-47
2021/07/14 06:33:13;;;;;;;;;6.00;6.00;;;;;18.28;65.18;100986.31;5083847;27;46909;-50
2021/07/14 06:35:38;;;;;;;;;8.50;7.25;;;;;18.27;64.85;100987.22;5102576;27;45377;-49
2021/07/14 06:38:04;;;;;;;;;8.00;6.25;;;;;18.26;64.69;100986.34;5102607;27;45232;-49
2021/07/14 06:40:30;;;;;;;;;7.50;6.50;;;;;18.29;64.83;100996.88;5102594;27;45469;-48
2021/07/14 06:42:56;;;;;;;;;7.00;6.75;;;;;18.27;64.56;100995.19;5102302;27;47074;-51
2021/07/14 06:45:23;;;;;;;;;6.75;6.75;;;;;18.30;64.53;101003.94;5102311;27;45303;-48
2021/07/14 06:47:50;;;;;;;;;6.50;6.50;;;;;18.30;64.62;101001.25;5101876;27;45368;-50
2021/07/14 06:50:15;;;;;;;;;6.50;5.25;;;;;18.32;64.67;101006.50;5083629;27;45480;-50
2021/07/14 06:52:42;;;;;;;;;5.75;5.75;;;;;18.33;64.77;101003.78;5102294;27;46337;-50
2021/07/14 06:55:09;;;;;;;;;6.75;5.50;;;;;18.32;64.44;101001.19;5102336;27;45469;-50
2021/07/14 06:57:35;;;;;;;;;6.50;6.50;;;;;18.29;64.91;100994.22;5102119;27;45229;-47
2021/07/14 07:00:01;;;;;;;;;7.00;7.00;;;;;18.34;64.73;100999.34;5101923;27;45500;-51
2021/07/14 07:02:26;;;;;;;;;7.00;6.00;;;;;18.36;64.51;101000.13;5102017;27;45212;-51
2021/07/14 07:04:52;;;;;;;;;5.25;5.25;;;;;18.38;64.78;101008.03;5102042;27;45403;-48
2021/07/14 07:07:17;;;;;;;;;7.25;5.50;;;;;18.39;64.73;101013.31;5102204;27;45310;-47
2021/07/14 07:09:44;;;;;;;;;5.75;5.75;;;;;18.40;64.66;101007.06;5102045;27;45215;-49
2021/07/14 07:12:10;;;;;;;;;7.25;6.00;;;;;18.38;64.35;101005.38;5101832;27;47180;-51
2021/07/14 07:14:35;;;;;;;;;7.25;7.25;;;;;18.40;64.77;101007.06;5101979;27;45385;-49
2021/07/14 07:17:00;;;;;;;;;4.00;4.00;;;;;18.40;64.62;101008.84;5102132;27;45334;-49
2021/07/14 07:19:26;;;;;;;;;7.25;6.00;;;;;18.40;64.59;101017.69;5101719;27;45298;-49
2021/07/14 07:21:51;;;;;;;;;6.75;6.25;;;;;18.40;64.71;101009.72;5101606;27;46246;-50
2021/07/14 07:24:17;;;;;;;;;5.00;5.00;;;;;18.42;64.47;101012.31;5102084;27;45394;-52
2021/07/14 07:26:45;;;;;;;;;7.00;7.00;;;;;18.43;64.89;101009.56;5080863;27;45336;-49
2021/07/14 07:29:11;;;;;;;;;8.75;7.50;;;;;18.45;64.85;101010.38;5101882;27;45387;-49
2021/07/14 07:31:37;;;;;;;;;7.00;5.50;;;;;18.46;64.70;101014.75;5101374;27;46041;-50
2021/07/14 07:34:03;;;;;;;;;6.00;6.00;;;;;18.49;64.41;101013.78;5101406;27;45184;-50
2021/07/14 07:36:29;;;;;;;;;7.25;6.00;;;;;18.50;64.54;101016.38;5101692;27;45320;-49
2021/07/14 07:38:54;;;;;;;;;5.75;5.75;;;;;18.53;64.55;101012.72;5101506;27;45262;-47
2021/07/14 07:41:21;;;;;;;;;7.75;5.25;;;;;18.56;64.88;101009.06;5101471;27;45384;-47
2021/07/14 07:43:47;;;;;;;;;7.00;7.00;;;;;18.57;64.70;101008.13;5101394;27;45394;-48
2021/07/14 07:46:13;;;;;;;;;7.00;7.00;;;;;18.61;64.43;101012.38;5101382;27;45281;-49
2021/07/14 07:48:38;;;;;;;;;7.00;7.00;;;;;18.64;64.84;101012.22;5101327;27;45257;-50
2021/07/14 07:51:06;;;;;;;;;7.25;7.25;;;;;18.68;64.89;101024.50;5101230;27;45415;-50
2021/07/14 07:53:32;;;;;;;;;8.00;6.25;;;;;18.71;64.67;101019.03;5101619;27;45232;-50
2021/07/14 07:55:57;;;;;;;;;8.00;7.00;;;;;18.75;64.58;101012.63;5101199;27;45252;-47
2021/07/14 07:58:23;;;;;;;;;8.50;7.75;;;;;18.76;64.82;101017.03;5101149;27;45390;-49
2021/07/14 08:00:49;;;;;;;;;6.50;5.50;;;;;18.80;64.44;101010.66;5099848;27;46076;-46
2021/07/14 08:03:14;;;;;;;;;9.75;7.25;;;;;18.84;64.43;101022.88;5101107;27;45484;-46
2021/07/14 08:05:41;;;;;;;;;11.75;9.00;;;;;18.89;64.67;101027.97;5101017;27;45476;-46
2021/07/14 08:08:06;;;;;;;;;9.00;9.00;;;;;18.93;64.30;101024.31;5082843;27;45428;-47
2021/07/14 08:10:32;;;;;;;;;9.75;8.00;;;;;18.97;64.76;101031.22;5100815;27;46266;-45
2021/07/14 08:12:58;;;;;;;;;8.25;7.00;;;;;19.00;64.55;101025.75;5101026;27;45367;-48
2021/07/14 08:15:24;;;;;;;;;7.75;7.00;;;;;19.04;64.65;101029.13;5101034;27;45230;-46
2021/07/14 08:17:49;;;;;;;;;11.25;8.00;;;;;19.08;64.24;101027.19;5101099;27;45263;-46
2021/07/14 08:20:15;;;;;;;;;7.50;7.50;;;;;19.07;64.20;101026.34;5075951;28;45565;-46
2021/07/14 08:22:41;;;;;;;;;7.50;7.50;;;;;19.10;64.00;101026.19;5096256;27;45418;-49
2021/07/14 08:25:08;;;;;;;;;7.00;7.00;;;;;19.13;64.22;101026.06;5096099;27;45303;-47
2021/07/14 08:27:35;;;;;;;;;8.00;7.25;;;;;19.14;63.99;101038.44;5080377;28;45402;-49
2021/07/14 08:30:00;;;;;;;;;7.75;6.75;;;;;19.14;64.15;101041.13;5080162;28;45533;-47
2021/07/14 08:32:29;;;;;;;;;6.00;6.00;;;;;19.16;64.35;101044.56;5080355;28;45373;-49
2021/07/14 08:34:56;;;;;;;;;7.25;7.25;;;;;19.20;64.10;101045.28;5080132;28;45318;-46
2021/07/14 08:37:22;;;;;;;;;6.50;6.00;;;;;19.21;63.50;101047.03;5079889;28;45411;-51
2021/07/14 08:39:53;;;;;;;;;6.50;6.50;;;;;19.21;63.84;101048.84;5079699;27;46231;-49
2021/07/14 08:42:20;;;;;;;;;8.25;7.50;;;;;19.25;63.98;101045.94;5079949;28;45393;-49
2021/07/14 08:44:46;;;;;;;;;6.00;5.50;;;;;19.28;63.61;101050.25;5080161;28;46423;-50
2021/07/14 08:47:12;;;;;;;;;6.00;6.00;;;;;19.29;63.55;101050.19;5080064;28;45267;-50
2021/07/14 08:49:39;;;;;;;;;5.00;5.00;;;;;19.32;63.42;101055.38;5079513;28;46067;-49
2021/07/14 08:52:05;;;;;;;;;8.75;6.25;;;;;19.32;63.65;101054.53;5080111;28;45366;-50
2021/07/14 08:54:31;;;;;;;;;7.25;5.75;;;;;19.34;63.27;101060.63;5080058;28;45272;-49
2021/07/14 08:56:56;;;;;;;;;6.00;6.00;;;;;19.34;63.54;101060.63;5080216;28;45457;-47
2021/07/14 08:59:22;;;;;;;;;4.00;4.00;;;;;19.35;63.13;101059.72;5079734;28;45465;-50
2021/07/14 09:01:48;;;;;;;;;7.25;4.75;;;;;19.33;62.95;101074.88;5080061;28;45322;-45
2021/07/14 09:04:14;;;;;;;;;7.75;6.50;;;;;19.32;63.58;101073.19;5079879;28;45244;-49
2021/07/14 09:06:39;;;;;;;;;6.00;6.00;;;;;19.31;63.58;101066.13;5080035;28;45322;-48
2021/07/14 09:09:06;;;;;;;;;5.50;5.25;;;;;19.33;62.92;101062.44;5079760;28;45196;-48
2021/07/14 09:11:48;;;;;;;;;9.00;7.00;;;;;19.33;63.09;101061.56;5081318;27;45227;-44
2021/07/14 09:14:29;;;;;;;;;7.75;7.00;;;;;19.34;63.20;101076.63;5083372;28;45438;-46
2021/07/14 09:16:55;;;;;;;;;5.50;5.50;;;;;19.32;62.91;101066.03;5083355;28;45334;-47
2021/07/14 09:19:30;;;;;;;;;4.00;4.00;;;;;19.31;63.07;101068.78;5086750;27;45387;-45
2021/07/14 09:21:59;;;;;;;;;6.75;5.75;;;;;19.28;62.74;101058.25;5103503;27;45298;-47
2021/07/14 09:24:27;;;;;;;;;6.00;6.00;;;;;19.25;62.90;101072.56;5103818;27;45371;-47
2021/07/14 09:26:54;;;;;;;;;2.50;2.00;;;;;19.26;62.77;101054.81;5103481;27;45162;-48
2021/07/14 09:29:20;;;;;;;;;5.75;5.00;;;;;19.30;62.74;101059.91;5103816;27;45368;-44
2021/07/14 09:31:46;;;;;;;;;4.50;4.50;;;;;19.31;62.82;101066.97;5103364;27;45284;-44
2021/07/14 09:34:28;;;;;;;;;7.00;6.00;;;;;19.32;62.64;101062.53;5081723;28;45430;-45
2021/07/14 09:37:02;;;;;;;;;6.00;6.00;;;;;19.37;63.11;101062.28;5100556;27;45228;-46
2021/07/14 09:39:50;;;;;;;;;5.75;5.00;;;;;19.38;63.01;101069.34;5103351;27;47066;-46
2021/07/14 09:42:15;;;;;;;;;5.25;5.25;;;;;19.38;62.44;101067.53;5103427;27;45318;-46
2021/07/14 09:44:45;;;;;;;;;5.00;5.00;;;;;19.42;62.79;101070.94;5103602;27;45500;-45
2021/07/14 09:47:20;;;;;;;;;7.00;6.00;;;;;19.45;62.60;101069.00;5103660;27;45311;-46
2021/07/14 09:49:47;;;;;;;;;4.75;4.75;;;;;19.46;63.00;101073.41;5102882;27;46986;-46
2021/07/14 09:52:16;;;;;;;;;6.50;5.00;;;;;19.48;62.66;101075.97;5103357;27;45426;-48
2021/07/14 09:54:42;;;;;;;;;5.00;5.00;;;;;19.49;62.83;101080.38;5103239;27;45339;-50
2021/07/14 09:57:16;;;;;;;;;5.25;5.00;;;;;19.52;62.58;101082.03;5084742;27;45307;-47
2021/07/14 09:59:42;;;;;;;;;4.50;4.50;;;;;19.52;62.32;101084.72;5102945;27;46379;-47
2021/07/14 10:02:15;;;;;;;;;6.75;6.25;;;;;19.51;62.68;101078.53;5103191;27;45280;-50
2021/07/14 10:04:41;;;;;;;;;6.00;6.00;;;;;19.52;62.42;101088.25;5102821;27;45373;-49
2021/07/14 10:07:09;;;;;;;;;4.25;4.25;;;;;19.51;62.34;101077.63;5102937;27;45321;-46
2021/07/14 10:09:35;;;;;;;;;6.50;6.50;;;;;19.50;62.50;101092.78;5102830;27;46131;-50
2021/07/14 10:12:27;;;;;;;;;5.00;5.00;;;;;19.52;62.24;101085.59;5103039;27;45434;-45
2021/07/14 10:14:54;;;;;;;;;4.25;4.25;;;;;19.52;62.41;101092.69;5103024;27;45272;-50
2021/07/14 10:17:44;;;;;;;;;4.00;4.00;;;;;19.55;61.97;101097.91;5102838;27;45310;-50
2021/07/14 10:20:21;;;;;;;;;5.00;5.00;;;;;19.56;62.05;101089.84;5102434;27;47338;-47
2021/07/14 10:22:51;;;;;;;;;5.25;5.25;;;;;19.58;62.12;101092.41;5101720;27;45373;-49
2021/07/14 10:25:20;;;;;;;;;5.50;5.00;;;;;19.57;62.31;101104.91;5102774;27;45316;-48
2021/07/14 10:27:49;;;;;;;;;7.50;6.50;;;;;19.60;62.34;101098.56;5102641;27;45362;-48
2021/07/14 10:30:16;;;;;;;;;8.00;6.75;;;;;19.62;62.29;101096.66;5102412;27;45324;-46
2021/07/14 10:32:42;;;;;;;;;4.50;4.50;;;;;19.65;62.24;101104.53;5102679;27;45227;-48
2021/07/14 10:35:14;;;;;;;;;4.50;2.75;;;;;19.69;62.04;101097.25;5102446;27;45579;-48
2021/07/14 10:37:42;;;;;;;;;11.50;8.75;;;;;19.71;62.18;101096.25;5102391;27;45663;-47
2021/07/14 10:40:09;;;;;;;;;5.00;5.00;;;;;19.77;61.84;101103.97;5102543;27;45263;-47
2021/07/14 10:42:35;;;;;;;;;6.00;5.50;;;;;19.80;62.26;101106.47;5102426;27;45314;-47
2021/07/14 10:45:04;;;;;;;;;7.25;6.00;;;;;19.85;61.71;101111.63;5102429;27;45333;-46
2021/07/14 10:47:30;;;;;;;;;7.00;6.50;;;;;19.88;62.04;101111.47;5102426;27;45422;-46
2021/07/14 10:49:57;;;;;;;;;7.00;7.00;;;;;19.92;61.94;101115.75;5101889;27;45437;-46
2021/07/14 10:52:23;;;;;;;;;6.25;6.00;;;;;19.96;61.93;101111.09;5083906;27;45273;-48
2021/07/14 10:54:52;;;;;;;;;8.00;7.50;;;;;20.00;62.27;101107.38;5102362;27;45242;-46
2021/07/14 10:57:20;;;;;;;;;6.00;6.00;;;;;20.03;62.39;101111.69;5080445;28;45771;-47
2021/07/14 10:59:46;;;;;;;;;4.75;4.25;;;;;20.06;62.27;101115.09;5100393;27;45331;-46
2021/07/14 11:02:15;;;;;;;;;9.75;8.75;;;;;20.11;62.27;101115.72;5102299;27;45314;-48
2021/07/14 11:04:42;;;;;;;;;8.00;8.00;;;;;20.12;61.77;101113.91;5101910;27;45442;-47
2021/07/14 11:07:08;;;;;;;;;8.75;7.00;;;;;20.17;62.24;101106.53;5102052;27;45306;-46
2021/07/14 11:09:41;;;;;;;;;7.50;7.00;;;;;20.24;62.27;101112.47;5101807;27;46130;-47
2021/07/14 11:12:09;;;;;;;;;8.00;7.00;;;;;20.29;61.97;101111.28;5101932;27;45336;-48
2021/07/14 11:14:35;;;;;;;;;7.75;6.50;;;;;20.38;61.95;101117.13;5102101;27;45232;-47
2021/07/14 11:17:01;;;;;;;;;7.50;6.50;;;;;20.45;61.93;101118.53;5081168;27;45386;-46
2021/07/14 11:19:52;;;;;;;;;7.25;7.25;;;;;20.53;62.12;101116.34;5101489;27;46018;-49
2021/07/14 11:22:45;;;;;;;;;6.25;6.25;;;;;20.63;61.74;101122.09;5101896;27;45322;-47
2021/07/14 11:25:19;;;;;;;;;9.25;6.50;;;;;20.70;61.85;101110.13;5099078;27;45307;-45
2021/07/14 11:27:47;;;;;;;;;10.00;10.00;;;;;20.77;62.15;101113.41;5101693;27;45331;-47
2021/07/14 11:30:12;;;;;;;;;7.50;7.00;;;;;20.86;61.91;101115.59;5101547;27;46110;-47